sensor_id;sensor_type;location;lat;lon;timestamp;pressure;altitude;pressure_sealevel;temperature;humidity
12203;BME280;6164;42.178;24.622;2024-02-26T00:00:32;99375.34;;;9.37;100.00
12203;BME280;6164;42.178;24.622;2024-02-26T00:03:00;99381.91;;;9.41;100.00
12203;BME280;6164;42.178;24.622;2024-02-26T00:05:26;99392.59;;;9.48;100.00
12203;BME280;6164;42.178;24.622;2024-02-26T00:07:53;99391.97;;;9.54;100.00
12203;BME280;6164;42.178;24.622;2024-02-26T00:10:19;99391.81;;;9.47;100.00
12203;BME280;6164;42.178;24.622;2024-02-26T00:12:46;99389.19;;;9.47;100.00
12203;BME280;6164;42.178;24.622;2024-02-26T00:15:13;99393.59;;;9.55;100.00
12203;BME280;6164;42.178;24.622;2024-02-26T00:17:41;99385.34;;;9.58;100.00
12203;BME280;6164;42.178;24.622;2024-02-26T00:20:08;99376.00;;;9.55;100.00
12203;BME280;6164;42.178;24.622;2024-02-26T00:22:36;99366.94;;;9.50;100.00
12203;BME280;6164;42.178;24.622;2024-02-26T00:25:03;99366.25;;;9.48;100.00
12203;BME280;6164;42.178;24.622;2024-02-26T00:27:30;99368.91;;;9.48;100.00
12203;BME280;6164;42.178;24.622;2024-02-26T00:29:57;99366.59;;;9.45;100.00
12203;BME280;6164;42.178;24.622;2024-02-26T00:32:23;99377.47;;;9.50;100.00
12203;BME280;6164;42.178;24.622;2024-02-26T00:34:51;99368.56;;;9.51;100.00
12203;BME280;6164;42.178;24.622;2024-02-26T00:37:18;99354.91;;;9.23;100.00
12203;BME280;6164;42.178;24.622;2024-02-26T00:39:44;99338.81;;;9.10;100.00
12203;BME280;6164;42.178;24.622;2024-02-26T00:42:11;99341.09;;;8.97;100.00
12203;BME280;6164;42.178;24.622;2024-02-26T00:44:38;99372.19;;;9.09;100.00
12203;BME280;6164;42.178;24.622;2024-02-26T00:47:04;99389.34;;;9.21;100.00
12203;BME280;6164;42.178;24.622;2024-02-26T00:49:34;99381.59;;;9.28;100.00
12203;BME280;6164;42.178;24.622;2024-02-26T00:52:02;99347.34;;;9.36;100.00
12203;BME280;6164;42.178;24.622;2024-02-26T00:54:28;99370.56;;;9.49;100.00
12203;BME280;6164;42.178;24.622;2024-02-26T00:56:55;99376.47;;;9.51;100.00
12203;BME280;6164;42.178;24.622;2024-02-26T00:59:21;99366.59;;;9.45;100.00
12203;BME280;6164;42.178;24.622;2024-02-26T01:01:48;99357.53;;;9.39;100.00
12203;BME280;6164;42.178;24.622;2024-02-26T01:04:14;99353.09;;;9.40;100.00
12203;BME280;6164;42.178;24.622;2024-02-26T01:06:41;99344.84;;;9.43;100.00
12203;BME280;6164;42.178;24.622;2024-02-26T01:09:09;99336.00;;;9.44;100.00
12203;BME280;6164;42.178;24.622;2024-02-26T01:11:35;99337.28;;;9.48;100.00
12203;BME280;6164;42.178;24.622;2024-02-26T01:14:02;99330.19;;;9.56;100.00
12203;BME280;6164;42.178;24.622;2024-02-26T01:16:29;99324.59;;;9.51;100.00
12203;BME280;6164;42.178;24.622;2024-02-26T01:18:56;99312.75;;;9.47;100.00
12203;BME280;6164;42.178;24.622;2024-02-26T01:21:22;99327.25;;;9.35;100.00
12203;BME280;6164;42.178;24.622;2024-02-26T01:23:49;99336.47;;;9.31;100.00
12203;BME280;6164;42.178;24.622;2024-02-26T01:26:17;99344.53;;;9.38;100.00
12203;BME280;6164;42.178;24.622;2024-02-26T01:28:43;99357.56;;;9.47;100.00
12203;BME280;6164;42.178;24.622;2024-02-26T01:31:10;99351.94;;;9.58;100.00
12203;BME280;6164;42.178;24.622;2024-02-26T01:33:36;99353.22;;;9.70;100.00
12203;BME280;6164;42.178;24.622;2024-02-26T01:36:03;99353.03;;;9.80;100.00
12203;BME280;6164;42.178;24.622;2024-02-26T01:38:29;99347.06;;;9.86;100.00
12203;BME280;6164;42.178;24.622;2024-02-26T01:40:56;99336.69;;;9.84;100.00
12203;BME280;6164;42.178;24.622;2024-02-26T01:43:23;99340.66;;;9.80;100.00
12203;BME280;6164;42.178;24.622;2024-02-26T01:45:50;99347.56;;;9.89;100.00
12203;BME280;6164;42.178;24.622;2024-02-26T01:48:16;99348.72;;;9.95;100.00
12203;BME280;6164;42.178;24.622;2024-02-26T01:50:43;99347.19;;;10.00;100.00
12203;BME280;6164;42.178;24.622;2024-02-26T01:53:09;99341.72;;;10.02;100.00
12203;BME280;6164;42.178;24.622;2024-02-26T01:55:36;99331.09;;;9.87;100.00
12203;BME280;6164;42.178;24.622;2024-02-26T01:58:03;99337.81;;;9.98;100.00
12203;BME280;6164;42.178;24.622;2024-02-26T02:00:31;99331.00;;;10.03;100.00
12203;BME280;6164;42.178;24.622;2024-02-26T02:02:58;99329.38;;;10.02;100.00
12203;BME280;6164;42.178;24.622;2024-02-26T02:05:24;99325.44;;;10.06;100.00
12203;BME280;6164;42.178;24.622;2024-02-26T02:07:52;99321.78;;;10.07;100.00
12203;BME280;6164;42.178;24.622;2024-02-26T02:10:18;99316.03;;;10.04;100.00
12203;BME280;6164;42.178;24.622;2024-02-26T02:12:47;99318.19;;;10.00;100.00
12203;BME280;6164;42.178;24.622;2024-02-26T02:15:14;99311.63;;;9.96;100.00
12203;BME280;6164;42.178;24.622;2024-02-26T02:17:42;99315.88;;;9.97;100.00
12203;BME280;6164;42.178;24.622;2024-02-26T02:20:09;99312.25;;;9.98;100.00
12203;BME280;6164;42.178;24.622;2024-02-26T02:22:37;99306.69;;;9.93;100.00
12203;BME280;6164;42.178;24.622;2024-02-26T02:25:04;99301.72;;;9.90;100.00
12203;BME280;6164;42.178;24.622;2024-02-26T02:27:30;99293.69;;;9.84;100.00
12203;BME280;6164;42.178;24.622;2024-02-26T02:29:57;99292.41;;;9.80;100.00
12203;BME280;6164;42.178;24.622;2024-02-26T02:32:24;99303.91;;;9.79;100.00
12203;BME280;6164;42.178;24.622;2024-02-26T02:34:50;99304.81;;;9.63;100.00
12203;BME280;6164;42.178;24.622;2024-02-26T02:37:17;99302.19;;;9.63;100.00
12203;BME280;6164;42.178;24.622;2024-02-26T02:39:45;99300.81;;;9.67;100.00
12203;BME280;6164;42.178;24.622;2024-02-26T02:42:11;99308.56;;;9.69;100.00
12203;BME280;6164;42.178;24.622;2024-02-26T02:44:38;99318.66;;;9.65;100.00
12203;BME280;6164;42.178;24.622;2024-02-26T02:47:04;99323.75;;;9.67;100.00
12203;BME280;6164;42.178;24.622;2024-02-26T02:49:31;99318.47;;;9.67;100.00
12203;BME280;6164;42.178;24.622;2024-02-26T02:51:57;99320.09;;;9.68;100.00
12203;BME280;6164;42.178;24.622;2024-02-26T02:54:24;99323.41;;;9.70;100.00
12203;BME280;6164;42.178;24.622;2024-02-26T02:56:52;99314.31;;;9.72;100.00
12203;BME280;6164;42.178;24.622;2024-02-26T02:59:18;99311.69;;;9.72;100.00
12203;BME280;6164;42.178;24.622;2024-02-26T03:01:47;99313.69;;;9.70;100.00
12203;BME280;6164;42.178;24.622;2024-02-26T03:04:14;99315.66;;;9.68;100.00
12203;BME280;6164;42.178;24.622;2024-02-26T03:06:40;99318.47;;;9.67;100.00
12203;BME280;6164;42.178;24.622;2024-02-26T03:09:07;99322.09;;;9.66;100.00
12203;BME280;6164;42.178;24.622;2024-02-26T03:11:33;99319.13;;;9.61;100.00
12203;BME280;6164;42.178;24.622;2024-02-26T03:14:01;99320.66;;;9.55;100.00
12203;BME280;6164;42.178;24.622;2024-02-26T03:16:29;99327.88;;;9.53;100.00
12203;BME280;6164;42.178;24.622;2024-02-26T03:18:55;99323.44;;;9.54;100.00
12203;BME280;6164;42.178;24.622;2024-02-26T03:21:22;99321.00;;;9.52;100.00
12203;BME280;6164;42.178;24.622;2024-02-26T03:23:48;99305.97;;;9.53;100.00
12203;BME280;6164;42.178;24.622;2024-02-26T03:26:14;99310.78;;;9.41;100.00
12203;BME280;6164;42.178;24.622;2024-02-26T03:28:41;99319.03;;;9.38;100.00
12203;BME280;6164;42.178;24.622;2024-02-26T03:31:09;99322.50;;;9.30;100.00
12203;BME280;6164;42.178;24.622;2024-02-26T03:33:37;99332.22;;;9.30;100.00
12203;BME280;6164;42.178;24.622;2024-02-26T03:36:04;99322.19;;;9.25;100.00
12203;BME280;6164;42.178;24.622;2024-02-26T03:38:32;99316.25;;;9.23;100.00
12203;BME280;6164;42.178;24.622;2024-02-26T03:40:59;99322.34;;;9.24;100.00
12203;BME280;6164;42.178;24.622;2024-02-26T03:43:25;99327.13;;;9.20;100.00
12203;BME280;6164;42.178;24.622;2024-02-26T03:45:52;99325.28;;;9.21;100.00
12203;BME280;6164;42.178;24.622;2024-02-26T03:48:20;99331.56;;;9.20;100.00
12203;BME280;6164;42.178;24.622;2024-02-26T03:50:46;99335.19;;;9.19;100.00
12203;BME280;6164;42.178;24.622;2024-02-26T03:53:13;99333.19;;;9.21;100.00
12203;BME280;6164;42.178;24.622;2024-02-26T03:55:39;99321.03;;;9.20;100.00
12203;BME280;6164;42.178;24.622;2024-02-26T03:58:06;99321.53;;;9.15;100.00
12203;BME280;6164;42.178;24.622;2024-02-26T04:00:33;99325.31;;;9.13;100.00
12203;BME280;6164;42.178;24.622;2024-02-26T04:02:59;99331.56;;;9.12;100.00
12203;BME280;6164;42.178;24.622;2024-02-26T04:05:27;99334.19;;;9.12;100.00
12203;BME280;6164;42.178;24.622;2024-02-26T04:07:54;99337.66;;;9.12;100.00
12203;BME280;6164;42.178;24.622;2024-02-26T04:10:20;99333.53;;;9.10;100.00
12203;BME280;6164;42.178;24.622;2024-02-26T04:12:47;99341.25;;;9.11;100.00
12203;BME280;6164;42.178;24.622;2024-02-26T04:15:13;99341.09;;;9.13;100.00
12203;BME280;6164;42.178;24.622;2024-02-26T04:17:40;99336.66;;;9.13;100.00
12203;BME280;6164;42.178;24.622;2024-02-26T04:20:07;99328.44;;;9.16;100.00
12203;BME280;6164;42.178;24.622;2024-02-26T04:22:36;99329.09;;;9.18;100.00
12203;BME280;6164;42.178;24.622;2024-02-26T04:25:03;99325.28;;;9.21;100.00
12203;BME280;6164;42.178;24.622;2024-02-26T04:27:30;99332.06;;;9.23;100.00
12203;BME280;6164;42.178;24.622;2024-02-26T04:29:56;99329.09;;;9.26;100.00
12203;BME280;6164;42.178;24.622;2024-02-26T04:32:23;99332.72;;;9.25;100.00
12203;BME280;6164;42.178;24.622;2024-02-26T04:34:49;99335.19;;;9.27;100.00
12203;BME280;6164;42.178;24.622;2024-02-26T04:37:16;99338.78;;;9.26;100.00
12203;BME280;6164;42.178;24.622;2024-02-26T04:39:43;99358.72;;;9.28;100.00
12203;BME280;6164;42.178;24.622;2024-02-26T04:42:10;99351.16;;;9.25;100.00
12203;BME280;6164;42.178;24.622;2024-02-26T04:44:37;99337.16;;;9.17;100.00
12203;BME280;6164;42.178;24.622;2024-02-26T04:47:03;99335.34;;;9.09;100.00
12203;BME280;6164;42.178;24.622;2024-02-26T04:49:30;99353.28;;;9.14;100.00
12203;BME280;6164;42.178;24.622;2024-02-26T04:51:56;99360.69;;;9.18;100.00
12203;BME280;6164;42.178;24.622;2024-02-26T04:54:23;99354.91;;;9.23;100.00
12203;BME280;6164;42.178;24.622;2024-02-26T04:56:50;99352.78;;;9.26;100.00
12203;BME280;6164;42.178;24.622;2024-02-26T04:59:17;99347.19;;;9.29;100.00
12203;BME280;6164;42.178;24.622;2024-02-26T05:01:43;99354.13;;;9.30;100.00
12203;BME280;6164;42.178;24.622;2024-02-26T05:04:10;99352.59;;;9.36;100.00
12203;BME280;6164;42.178;24.622;2024-02-26T05:06:36;99347.84;;;9.40;100.00
12203;BME280;6164;42.178;24.622;2024-02-26T05:09:03;99345.84;;;9.42;100.00
12203;BME280;6164;42.178;24.622;2024-02-26T05:11:30;99351.97;;;9.42;100.00
12203;BME280;6164;42.178;24.622;2024-02-26T05:13:58;99355.56;;;9.41;100.00
12203;BME280;6164;42.178;24.622;2024-02-26T05:16:25;99358.88;;;9.35;100.00
12203;BME280;6164;42.178;24.622;2024-02-26T05:18:52;99356.25;;;9.35;100.00
12203;BME280;6164;42.178;24.622;2024-02-26T05:21:18;99351.81;;;9.36;100.00
12203;BME280;6164;42.178;24.622;2024-02-26T05:23:45;99360.03;;;9.41;100.00
12203;BME280;6164;42.178;24.622;2024-02-26T05:26:12;99361.50;;;9.43;100.00
12203;BME280;6164;42.178;24.622;2024-02-26T05:28:45;99363.13;;;9.44;100.00
12203;BME280;6164;42.178;24.622;2024-02-26T05:31:13;99368.09;;;9.47;100.00
12203;BME280;6164;42.178;24.622;2024-02-26T05:33:40;99368.72;;;9.49;100.00
12203;BME280;6164;42.178;24.622;2024-02-26T05:36:06;99371.19;;;9.51;100.00
12203;BME280;6164;42.178;24.622;2024-02-26T05:38:33;99375.31;;;9.53;100.00
12203;BME280;6164;42.178;24.622;2024-02-26T05:40:59;99368.25;;;9.54;100.00
12203;BME280;6164;42.178;24.622;2024-02-26T05:43:26;99375.31;;;9.53;100.00
12203;BME280;6164;42.178;24.622;2024-02-26T05:45:53;99366.75;;;9.51;100.00
12203;BME280;6164;42.178;24.622;2024-02-26T05:48:21;99367.75;;;9.50;100.00
12203;BME280;6164;42.178;24.622;2024-02-26T05:50:48;99371.06;;;9.52;100.00
12203;BME280;6164;42.178;24.622;2024-02-26T05:53:14;99377.13;;;9.53;100.00
12203;BME280;6164;42.178;24.622;2024-02-26T05:55:41;99378.44;;;9.57;100.00
12203;BME280;6164;42.178;24.622;2024-02-26T05:58:07;99388.16;;;9.56;100.00
12203;BME280;6164;42.178;24.622;2024-02-26T06:00:34;99389.00;;;9.57;100.00
12203;BME280;6164;42.178;24.622;2024-02-26T06:03:00;99393.25;;;9.58;100.00
12203;BME280;6164;42.178;24.622;2024-02-26T06:05:28;99394.59;;;9.62;100.00
12203;BME280;6164;42.178;24.622;2024-02-26T06:07:55;99404.44;;;9.68;100.00
12203;BME280;6164;42.178;24.622;2024-02-26T06:10:21;99405.94;;;9.70;100.00
12203;BME280;6164;42.178;24.622;2024-02-26T06:12:48;99409.38;;;9.71;100.00
12203;BME280;6164;42.178;24.622;2024-02-26T06:15:14;99408.09;;;9.67;100.00
12203;BME280;6164;42.178;24.622;2024-02-26T06:17:41;99408.25;;;9.73;100.00
12203;BME280;6164;42.178;24.622;2024-02-26T06:20:07;99403.78;;;9.66;100.00
12203;BME280;6164;42.178;24.622;2024-02-26T06:22:39;99420.25;;;9.68;100.00
12203;BME280;6164;42.178;24.622;2024-02-26T06:25:05;99418.78;;;9.73;100.00
12203;BME280;6164;42.178;24.622;2024-02-26T06:27:32;99410.19;;;9.79;100.00
12203;BME280;6164;42.178;24.622;2024-02-26T06:29:58;99416.97;;;9.82;100.00
12203;BME280;6164;42.178;24.622;2024-02-26T06:32:25;99421.91;;;9.85;100.00
12203;BME280;6164;42.178;24.622;2024-02-26T06:34:52;99427.16;;;9.93;100.00
12203;BME280;6164;42.178;24.622;2024-02-26T06:37:19;99428.13;;;10.00;100.00
12203;BME280;6164;42.178;24.622;2024-02-26T06:39:47;99432.41;;;10.01;100.00
12203;BME280;6164;42.178;24.622;2024-02-26T06:42:13;99433.06;;;10.03;100.00
12203;BME280;6164;42.178;24.622;2024-02-26T06:44:40;99434.34;;;10.07;100.00
12203;BME280;6164;42.178;24.622;2024-02-26T06:47:06;99429.91;;;10.07;100.00
12203;BME280;6164;42.178;24.622;2024-02-26T06:49:33;99428.63;;;10.11;100.00
12203;BME280;6164;42.178;24.622;2024-02-26T06:51:59;99420.38;;;10.14;100.00
12203;BME280;6164;42.178;24.622;2024-02-26T06:54:26;99433.72;;;10.05;100.00
12203;BME280;6164;42.178;24.622;2024-02-26T06:56:53;99435.72;;;10.11;100.00
12203;BME280;6164;42.178;24.622;2024-02-26T06:59:20;99442.28;;;10.15;100.00
12203;BME280;6164;42.178;24.622;2024-02-26T07:01:47;99436.69;;;10.10;100.00
12203;BME280;6164;42.178;24.622;2024-02-26T07:04:13;99444.59;;;10.18;100.00
12203;BME280;6164;42.178;24.622;2024-02-26T07:06:40;99436.66;;;10.26;100.00
12203;BME280;6164;42.178;24.622;2024-02-26T07:09:08;99438.59;;;10.32;100.00
12203;BME280;6164;42.178;24.622;2024-02-26T07:11:34;99442.53;;;10.44;100.00
12203;BME280;6164;42.178;24.622;2024-02-26T07:14:02;99444.97;;;10.53;100.00
12203;BME280;6164;42.178;24.622;2024-02-26T07:16:29;99440.50;;;10.54;100.00
12203;BME280;6164;42.178;24.622;2024-02-26T07:18:55;99443.28;;;10.60;100.00
12203;BME280;6164;42.178;24.622;2024-02-26T07:21:22;99441.13;;;10.64;100.00
12203;BME280;6164;42.178;24.622;2024-02-26T07:23:48;99440.78;;;10.67;100.00
12203;BME280;6164;42.178;24.622;2024-02-26T07:26:15;99440.91;;;10.74;100.00
12203;BME280;6164;42.178;24.622;2024-02-26T07:28:43;99436.91;;;10.78;100.00
12203;BME280;6164;42.178;24.622;2024-02-26T07:31:11;99434.38;;;10.92;100.00
12203;BME280;6164;42.178;24.622;2024-02-26T07:33:38;99429.72;;;10.94;100.00
12203;BME280;6164;42.178;24.622;2024-02-26T07:36:04;99436.63;;;11.03;100.00
12203;BME280;6164;42.178;24.622;2024-02-26T07:38:31;99423.53;;;11.10;100.00
12203;BME280;6164;42.178;24.622;2024-02-26T07:40:58;99414.06;;;11.15;100.00
12203;BME280;6164;42.178;24.622;2024-02-26T07:43:24;99413.84;;;11.25;100.00
12203;BME280;6164;42.178;24.622;2024-02-26T07:45:50;99420.69;;;11.34;100.00
12203;BME280;6164;42.178;24.622;2024-02-26T07:48:18;99410.13;;;11.34;100.00
12203;BME280;6164;42.178;24.622;2024-02-26T07:50:45;99408.25;;;11.42;100.00
12203;BME280;6164;42.178;24.622;2024-02-26T07:53:11;99411.81;;;11.49;100.00
12203;BME280;6164;42.178;24.622;2024-02-26T07:55:38;99397.88;;;11.55;100.00
12203;BME280;6164;42.178;24.622;2024-02-26T07:58:04;99399.81;;;11.61;100.00
12203;BME280;6164;42.178;24.622;2024-02-26T08:00:31;99398.00;;;11.62;100.00
12203;BME280;6164;42.178;24.622;2024-02-26T08:02:57;99396.03;;;11.64;100.00
12203;BME280;6164;42.178;24.622;2024-02-26T08:05:25;99391.38;;;11.66;100.00
12203;BME280;6164;42.178;24.622;2024-02-26T08:07:52;99383.00;;;11.77;100.00
12203;BME280;6164;42.178;24.622;2024-02-26T08:10:20;99384.03;;;11.90;100.00
12203;BME280;6164;42.178;24.622;2024-02-26T08:12:46;99380.00;;;11.94;100.00
12203;BME280;6164;42.178;24.622;2024-02-26T08:15:13;99385.56;;;12.00;100.00
12203;BME280;6164;42.178;24.622;2024-02-26T08:17:39;99389.59;;;12.10;100.00
12203;BME280;6164;42.178;24.622;2024-02-26T08:20:06;99388.47;;;12.19;100.00
12203;BME280;6164;42.178;24.622;2024-02-26T08:22:35;99390.69;;;12.30;100.00
12203;BME280;6164;42.178;24.622;2024-02-26T08:25:02;99386.47;;;12.36;100.00
12203;BME280;6164;42.178;24.622;2024-02-26T08:27:31;99385.09;;;12.40;100.00
12203;BME280;6164;42.178;24.622;2024-02-26T08:29:58;99385.63;;;12.50;100.00
12203;BME280;6164;42.178;24.622;2024-02-26T08:32:24;99395.09;;;12.59;100.00
12203;BME280;6164;42.178;24.622;2024-02-26T08:34:51;99388.25;;;12.64;100.00
12203;BME280;6164;42.178;24.622;2024-02-26T08:37:17;99391.41;;;12.74;100.00
12203;BME280;6164;42.178;24.622;2024-02-26T08:39:45;99390.41;;;12.75;100.00
12203;BME280;6164;42.178;24.622;2024-02-26T08:42:12;99384.56;;;12.80;100.00
12203;BME280;6164;42.178;24.622;2024-02-26T08:44:38;99380.97;;;12.87;100.00
12203;BME280;6164;42.178;24.622;2024-02-26T08:47:05;99373.91;;;12.94;100.00
12203;BME280;6164;42.178;24.622;2024-02-26T08:49:31;99379.13;;;13.02;100.00
12203;BME280;6164;42.178;24.622;2024-02-26T08:51:58;99376.34;;;13.10;100.00
12203;BME280;6164;42.178;24.622;2024-02-26T08:54:24;99376.22;;;13.18;100.00
12203;BME280;6164;42.178;24.622;2024-02-26T08:56:52;99374.53;;;13.11;100.00
12203;BME280;6164;42.178;24.622;2024-02-26T08:59:18;99371.03;;;13.10;100.00
12203;BME280;6164;42.178;24.622;2024-02-26T09:01:47;99367.50;;;13.03;100.00
12203;BME280;6164;42.178;24.622;2024-02-26T09:04:14;99365.72;;;13.10;100.00
12203;BME280;6164;42.178;24.622;2024-02-26T09:06:40;99363.41;;;13.01;100.00
12203;BME280;6164;42.178;24.622;2024-02-26T09:09:07;99357.59;;;13.12;100.00
12203;BME280;6164;42.178;24.622;2024-02-26T09:11:33;99354.22;;;13.24;100.00
12203;BME280;6164;42.178;24.622;2024-02-26T09:14:01;99367.94;;;13.28;100.00
12203;BME280;6164;42.178;24.622;2024-02-26T09:16:28;99358.03;;;13.15;100.00
12203;BME280;6164;42.178;24.622;2024-02-26T09:18:55;99354.66;;;13.28;100.00
12203;BME280;6164;42.178;24.622;2024-02-26T09:21:21;99352.72;;;13.37;100.00
12203;BME280;6164;42.178;24.622;2024-02-26T09:23:49;99363.16;;;13.45;100.00
12203;BME280;6164;42.178;24.622;2024-02-26T09:26:16;99364.69;;;13.54;100.00
12203;BME280;6164;42.178;24.622;2024-02-26T09:28:42;99362.03;;;13.54;100.00
12203;BME280;6164;42.178;24.622;2024-02-26T09:31:10;99354.66;;;13.49;100.00
12203;BME280;6164;42.178;24.622;2024-02-26T09:33:37;99359.19;;;13.55;100.00
12203;BME280;6164;42.178;24.622;2024-02-26T09:36:04;99358.84;;;13.65;100.00
12203;BME280;6164;42.178;24.622;2024-02-26T09:38:31;99348.28;;;13.71;100.00
12203;BME280;6164;42.178;24.622;2024-02-26T09:41:02;99340.59;;;13.83;100.00
12203;BME280;6164;42.178;24.622;2024-02-26T09:43:30;99343.28;;;13.89;100.00
12203;BME280;6164;42.178;24.622;2024-02-26T09:45:59;99344.75;;;13.92;100.00
12203;BME280;6164;42.178;24.622;2024-02-26T09:48:28;99348.47;;;14.04;100.00
12203;BME280;6164;42.178;24.622;2024-02-26T09:50:55;99340.53;;;14.10;100.00
12203;BME280;6164;42.178;24.622;2024-02-26T09:53:22;99340.16;;;14.13;100.00
12203;BME280;6164;42.178;24.622;2024-02-26T09:55:48;99334.50;;;14.23;100.00
12203;BME280;6164;42.178;24.622;2024-02-26T09:58:15;99326.38;;;14.31;100.00
12203;BME280;6164;42.178;24.622;2024-02-26T10:00:45;99320.06;;;14.38;100.00
12203;BME280;6164;42.178;24.622;2024-02-26T10:03:13;99320.91;;;14.39;100.00
12203;BME280;6164;42.178;24.622;2024-02-26T10:05:42;99315.00;;;14.50;100.00
12203;BME280;6164;42.178;24.622;2024-02-26T10:08:09;99306.47;;;14.61;100.00
12203;BME280;6164;42.178;24.622;2024-02-26T10:10:37;99303.00;;;14.74;100.00
12203;BME280;6164;42.178;24.622;2024-02-26T10:13:03;99290.34;;;14.76;100.00
12203;BME280;6164;42.178;24.622;2024-02-26T10:15:35;99292.81;;;14.90;100.00
12203;BME280;6164;42.178;24.622;2024-02-26T10:18:03;99289.13;;;14.98;100.00
12203;BME280;6164;42.178;24.622;2024-02-26T10:20:29;99281.78;;;15.06;100.00
12203;BME280;6164;42.178;24.622;2024-02-26T10:22:58;99275.66;;;15.19;100.00
12203;BME280;6164;42.178;24.622;2024-02-26T10:25:24;99273.38;;;15.29;100.00
12203;BME280;6164;42.178;24.622;2024-02-26T10:27:51;99266.00;;;15.37;100.00
12203;BME280;6164;42.178;24.622;2024-02-26T10:30:18;99265.59;;;15.47;100.00
12203;BME280;6164;42.178;24.622;2024-02-26T10:32:44;99263.13;;;15.52;100.00
12203;BME280;6164;42.178;24.622;2024-02-26T10:35:11;99250.66;;;15.59;100.00
12203;BME280;6164;42.178;24.622;2024-02-26T10:37:38;99247.59;;;15.49;100.00
12203;BME280;6164;42.178;24.622;2024-02-26T10:40:08;99253.09;;;15.67;100.00
12203;BME280;6164;42.178;24.622;2024-02-26T10:42:35;99244.09;;;15.68;100.00
12203;BME280;6164;42.178;24.622;2024-02-26T10:45:02;99254.31;;;15.71;100.00
12203;BME280;6164;42.178;24.622;2024-02-26T10:47:29;99240.78;;;15.79;100.00
12203;BME280;6164;42.178;24.622;2024-02-26T10:49:56;99244.63;;;15.90;100.00
12203;BME280;6164;42.178;24.622;2024-02-26T10:52:23;99245.19;;;15.98;100.00
12203;BME280;6164;42.178;24.622;2024-02-26T10:54:52;99234.78;;;15.90;100.00
12203;BME280;6164;42.178;24.622;2024-02-26T10:57:21;99233.94;;;16.03;100.00
12203;BME280;6164;42.178;24.622;2024-02-26T10:59:48;99231.81;;;16.11;100.00
12203;BME280;6164;42.178;24.622;2024-02-26T11:02:15;99224.63;;;16.18;100.00
12203;BME280;6164;42.178;24.622;2024-02-26T11:04:41;99220.69;;;16.27;100.00
12203;BME280;6164;42.178;24.622;2024-02-26T11:07:09;99214.94;;;16.30;100.00
12203;BME280;6164;42.178;24.622;2024-02-26T11:09:36;99214.50;;;16.33;100.00
12203;BME280;6164;42.178;24.622;2024-02-26T11:12:07;99215.94;;;16.36;100.00
12203;BME280;6164;42.178;24.622;2024-02-26T11:14:37;99208.97;;;16.35;100.00
12203;BME280;6164;42.178;24.622;2024-02-26T11:17:05;99209.78;;;16.35;100.00
12203;BME280;6164;42.178;24.622;2024-02-26T11:19:31;99210.16;;;16.45;100.00
12203;BME280;6164;42.178;24.622;2024-02-26T11:22:01;99200.91;;;16.48;100.00
12203;BME280;6164;42.178;24.622;2024-02-26T11:24:27;99200.13;;;16.47;100.00
12203;BME280;6164;42.178;24.622;2024-02-26T11:26:56;99198.81;;;16.56;100.00
12203;BME280;6164;42.178;24.622;2024-02-26T11:29:25;99201.44;;;16.63;98.81
12203;BME280;6164;42.178;24.622;2024-02-26T11:31:54;99192.56;;;16.69;95.15
12203;BME280;6164;42.178;24.622;2024-02-26T11:34:20;99195.81;;;16.71;94.50
12203;BME280;6164;42.178;24.622;2024-02-26T11:36:47;99194.00;;;16.71;95.92
12203;BME280;6164;42.178;24.622;2024-02-26T11:39:13;99183.72;;;16.75;97.46
12203;BME280;6164;42.178;24.622;2024-02-26T11:41:42;99181.22;;;16.80;98.18
12203;BME280;6164;42.178;24.622;2024-02-26T11:44:08;99182.59;;;16.82;100.00
12203;BME280;6164;42.178;24.622;2024-02-26T11:46:38;99183.16;;;16.91;94.86
12203;BME280;6164;42.178;24.622;2024-02-26T11:51:50;99170.81;;;16.96;92.00
12203;BME280;6164;42.178;24.622;2024-02-26T11:56:58;99168.00;;;17.09;91.36
12203;BME280;6164;42.178;24.622;2024-02-26T11:59:37;99171.41;;;17.17;89.31
12203;BME280;6164;42.178;24.622;2024-02-26T12:02:03;99164.84;;;17.19;88.49
12203;BME280;6164;42.178;24.622;2024-02-26T12:04:30;99171.78;;;17.20;88.99
12203;BME280;6164;42.178;24.622;2024-02-26T12:07:00;99164.84;;;17.19;86.70
12203;BME280;6164;42.178;24.622;2024-02-26T12:09:36;99167.06;;;17.22;86.86
12203;BME280;6164;42.178;24.622;2024-02-26T12:12:03;99166.16;;;17.28;87.59
12203;BME280;6164;42.178;24.622;2024-02-26T12:14:32;99163.94;;;17.25;85.36
12203;BME280;6164;42.178;24.622;2024-02-26T12:16:59;99158.38;;;17.27;86.24
12203;BME280;6164;42.178;24.622;2024-02-26T12:19:25;99163.31;;;17.30;84.80
12203;BME280;6164;42.178;24.622;2024-02-26T12:21:53;99155.31;;;17.30;84.16
12203;BME280;6164;42.178;24.622;2024-02-26T12:24:21;99156.91;;;17.31;83.52
12203;BME280;6164;42.178;24.622;2024-02-26T12:26:48;99153.19;;;17.13;83.79
12203;BME280;6164;42.178;24.622;2024-02-26T12:29:14;99152.03;;;17.28;86.09
12203;BME280;6164;42.178;24.622;2024-02-26T12:31:41;99156.03;;;17.37;87.18
12203;BME280;6164;42.178;24.622;2024-02-26T12:34:08;99156.41;;;17.40;85.09
12203;BME280;6164;42.178;24.622;2024-02-26T12:36:35;99151.06;;;17.40;85.68
12203;BME280;6164;42.178;24.622;2024-02-26T12:39:03;99144.78;;;17.35;86.06
12203;BME280;6164;42.178;24.622;2024-02-26T12:41:33;99146.63;;;17.34;88.13
12203;BME280;6164;42.178;24.622;2024-02-26T12:44:00;99149.50;;;17.33;87.14
12203;BME280;6164;42.178;24.622;2024-02-26T12:46:26;99145.19;;;17.32;86.92
12203;BME280;6164;42.178;24.622;2024-02-26T12:48:55;99149.28;;;17.34;86.63
12203;BME280;6164;42.178;24.622;2024-02-26T12:51:22;99146.84;;;17.33;85.77
12203;BME280;6164;42.178;24.622;2024-02-26T12:53:49;99133.56;;;17.44;84.57
12203;BME280;6164;42.178;24.622;2024-02-26T12:56:17;99141.31;;;17.52;85.48
12203;BME280;6164;42.178;24.622;2024-02-26T12:58:45;99142.13;;;17.53;84.97